createdAt,value
2023-03-19T00:01:53.853Z,51.61
2023-03-19T00:04:56.731Z,51.72
2023-03-19T00:07:59.400Z,51.74
2023-03-19T00:11:09.052Z,51.72
2023-03-19T00:14:11.953Z,51.68
2023-03-19T00:17:14.836Z,51.75
2023-03-19T00:20:18.337Z,52.04
2023-03-19T00:23:21.160Z,51.92
2023-03-19T00:26:23.942Z,51.88
2023-03-19T00:29:27.515Z,52.36
2023-03-19T00:32:30.575Z,52.30
2023-03-19T00:35:34.104Z,52.25
2023-03-19T00:38:37.158Z,52.80
2023-03-19T00:41:40.008Z,52.82
2023-03-19T00:44:42.807Z,52.72
2023-03-19T00:47:45.583Z,52.63
2023-03-19T00:50:49.606Z,52.72
2023-03-19T00:53:52.569Z,52.78
2023-03-19T00:56:55.622Z,53.03
2023-03-19T00:59:58.485Z,53.19
2023-03-19T01:03:03.794Z,52.92
2023-03-19T01:06:07.681Z,53.38
2023-03-19T01:09:10.672Z,53.35
2023-03-19T01:12:13.531Z,53.49
2023-03-19T01:15:17.093Z,53.58
2023-03-19T01:18:19.909Z,53.76
2023-03-19T01:21:22.734Z,53.86
2023-03-19T01:24:29.178Z,53.98
2023-03-19T01:27:31.805Z,54.16
2023-03-19T01:30:34.969Z,54.45
2023-03-19T01:33:38.618Z,54.31
2023-03-19T01:36:53.339Z,54.23
2023-03-19T01:40:04.005Z,54.55
2023-03-19T01:43:21.584Z,54.51
2023-03-19T01:46:33.204Z,54.82
2023-03-19T01:49:55.927Z,54.67
2023-03-19T01:52:59.250Z,54.86
2023-03-19T01:56:23.613Z,55.05
2023-03-19T01:59:36.523Z,54.77
2023-03-19T02:03:00.260Z,54.86
2023-03-19T02:06:28.332Z,55.32
2023-03-19T02:09:31.875Z,55.51
2023-03-19T02:12:35.719Z,55.82
2023-03-19T02:15:38.581Z,55.65
2023-03-19T02:18:41.635Z,55.92
2023-03-19T02:21:44.523Z,55.83
2023-03-19T02:24:56.324Z,55.86
2023-03-19T02:28:00.796Z,55.98
2023-03-19T02:31:03.845Z,56.05
2023-03-19T02:34:09.907Z,56.15
2023-03-19T02:37:26.634Z,56.25
2023-03-19T02:40:31.191Z,56.10
2023-03-19T02:43:39.302Z,56.35
2023-03-19T02:46:42.316Z,56.62
2023-03-19T02:49:45.212Z,56.68
2023-03-19T02:52:47.937Z,56.72
2023-03-19T02:55:50.831Z,56.88
2023-03-19T02:58:53.675Z,56.95
2023-03-19T03:01:56.702Z,57.03
2023-03-19T03:04:59.547Z,57.02
2023-03-19T03:08:03.206Z,57.11
2023-03-19T03:11:06.000Z,57.03
2023-03-19T03:14:08.860Z,57.45
2023-03-19T03:17:11.651Z,57.10
2023-03-19T03:20:17.744Z,57.17
2023-03-19T03:23:20.749Z,57.41
2023-03-19T03:26:23.637Z,57.38
2023-03-19T03:29:26.669Z,57.62
2023-03-19T03:32:29.478Z,58.04
2023-03-19T03:35:32.465Z,58.31
2023-03-19T03:38:35.529Z,58.14
2023-03-19T03:41:38.646Z,58.22
2023-03-19T03:44:42.249Z,58.29
2023-03-19T03:47:45.590Z,58.42
2023-03-19T03:50:48.616Z,58.48
2023-03-19T03:53:53.647Z,58.42
2023-03-19T03:56:56.503Z,58.48
2023-03-19T03:59:59.428Z,58.34
2023-03-19T04:03:03.100Z,58.50
2023-03-19T04:06:06.078Z,58.56
2023-03-19T04:09:09.208Z,58.33
2023-03-19T04:12:12.738Z,58.30
2023-03-19T04:15:16.748Z,58.48
2023-03-19T04:18:21.233Z,58.56
2023-03-19T04:21:24.077Z,58.63
2023-03-19T04:24:27.017Z,58.41
2023-03-19T04:27:29.748Z,58.56
2023-03-19T04:30:35.321Z,58.69
2023-03-19T04:33:38.798Z,58.93
2023-03-19T04:36:41.432Z,58.86
2023-03-19T04:39:44.846Z,58.84
2023-03-19T04:42:48.069Z,58.74
2023-03-19T04:46:10.457Z,58.71
2023-03-19T04:49:13.465Z,58.88
2023-03-19T04:52:16.483Z,58.77
2023-03-19T04:55:19.300Z,59.10
2023-03-19T04:58:30.396Z,59.13
2023-03-19T05:01:36.486Z,59.11
2023-03-19T05:04:41.757Z,59.56
2023-03-19T05:07:47.416Z,59.67
2023-03-19T05:10:50.210Z,60.00
2023-03-19T05:13:53.144Z,60.23
2023-03-19T05:16:55.872Z,60.57
2023-03-19T05:19:59.053Z,60.30
2023-03-19T05:23:02.868Z,60.37
2023-03-19T05:26:32.261Z,60.41
2023-03-19T05:29:44.410Z,60.17
2023-03-19T05:32:59.822Z,60.02
2023-03-19T05:36:15.220Z,60.29
2023-03-19T05:39:41.810Z,60.59
2023-03-19T05:42:45.360Z,60.55
2023-03-19T05:45:51.127Z,60.68
2023-03-19T05:48:56.384Z,60.58
2023-03-19T05:51:59.301Z,60.60
2023-03-19T05:55:01.985Z,60.73
2023-03-19T05:58:12.878Z,60.22
2023-03-19T06:01:16.302Z,60.04
2023-03-19T06:04:19.889Z,60.01
2023-03-19T06:07:22.835Z,59.60
2023-03-19T06:23:54.230Z,57.48
2023-03-19T06:27:03.884Z,56.59
2023-03-19T06:30:08.037Z,56.46
2023-03-19T06:33:11.203Z,56.50
2023-03-19T06:36:14.982Z,56.01
2023-03-19T06:39:21.788Z,55.68
2023-03-19T06:42:24.839Z,55.45
2023-03-19T06:45:28.133Z,55.33
2023-03-19T06:48:31.222Z,55.12
2023-03-19T06:51:34.224Z,54.98
2023-03-19T06:54:38.467Z,54.74
2023-03-19T06:57:41.565Z,54.20
2023-03-19T07:00:44.642Z,53.47
2023-03-19T07:03:47.850Z,53.54
2023-03-19T07:06:50.914Z,53.33
2023-03-19T07:09:53.698Z,52.69
2023-03-19T07:12:56.704Z,51.97
2023-03-19T07:16:00.405Z,51.74
2023-03-19T07:19:03.845Z,51.54
2023-03-19T07:22:06.742Z,51.06
2023-03-19T07:25:10.079Z,51.18
2023-03-19T07:28:13.540Z,51.29
2023-03-19T07:31:17.044Z,51.01
2023-03-19T07:34:20.042Z,50.94
2023-03-19T07:37:22.871Z,50.65
2023-03-19T07:40:26.882Z,50.50
2023-03-19T07:43:31.392Z,50.33
2023-03-19T07:46:34.355Z,50.30
2023-03-19T07:49:37.532Z,50.27
2023-03-19T07:52:40.656Z,50.27
2023-03-19T07:55:43.832Z,50.27
2023-03-19T07:58:47.098Z,50.02
2023-03-19T08:01:50.239Z,49.50
2023-03-19T08:04:53.574Z,49.23
2023-03-19T08:07:57.121Z,48.71
2023-03-19T08:11:00.640Z,48.58
2023-03-19T08:14:03.882Z,47.86
2023-03-19T08:17:06.843Z,47.91
2023-03-19T08:20:13.040Z,47.99
2023-03-19T08:23:16.456Z,48.13
2023-03-19T08:26:19.837Z,47.91
2023-03-19T08:29:23.160Z,47.68
2023-03-19T08:32:26.180Z,47.35
2023-03-19T08:35:29.473Z,47.15
2023-03-19T08:38:32.182Z,47.06
2023-03-19T08:41:34.964Z,47.22
2023-03-19T08:44:38.109Z,47.21
2023-03-19T08:47:41.748Z,46.79
2023-03-19T08:50:44.519Z,46.48
2023-03-19T08:53:47.584Z,45.71
2023-03-19T08:56:50.565Z,44.68
2023-03-19T08:59:53.952Z,44.75
2023-03-19T09:02:56.934Z,45.12
2023-03-19T09:06:01.347Z,44.73
2023-03-19T09:09:04.612Z,43.93
2023-03-19T09:12:09.665Z,43.53
2023-03-19T09:15:12.389Z,43.54
2023-03-19T09:18:15.713Z,43.32
2023-03-19T09:21:18.751Z,43.33
2023-03-19T09:24:21.995Z,42.98
2023-03-19T09:27:25.159Z,42.68
2023-03-19T09:30:27.877Z,42.22
2023-03-19T09:33:33.421Z,42.21
2023-03-19T09:36:37.936Z,41.86
2023-03-19T09:39:40.904Z,41.65
2023-03-19T09:43:18.392Z,41.55
2023-03-19T09:46:27.349Z,41.53
2023-03-19T09:49:43.303Z,41.36
2023-03-19T09:53:12.816Z,41.44
2023-03-19T09:56:16.665Z,40.66
2023-03-19T09:59:22.836Z,40.34
2023-03-19T10:02:41.991Z,40.06
2023-03-19T10:06:03.519Z,40.11
2023-03-19T10:09:28.468Z,39.78
2023-03-19T10:12:49.462Z,40.06
2023-03-19T10:15:55.776Z,39.81
2023-03-19T10:19:03.472Z,39.14
2023-03-19T10:22:12.252Z,39.95
2023-03-19T10:25:26.492Z,39.74
2023-03-19T10:28:30.641Z,39.71
2023-03-19T10:31:36.410Z,39.52
2023-03-19T10:34:45.859Z,39.34
2023-03-19T10:37:50.823Z,39.42
2023-03-19T10:40:59.532Z,39.49
2023-03-19T10:44:06.589Z,39.59
2023-03-19T10:47:13.090Z,39.41
2023-03-19T10:50:18.321Z,39.33
2023-03-19T10:53:39.686Z,39.64
2023-03-19T10:56:46.882Z,39.31
2023-03-19T10:59:49.637Z,39.39
2023-03-19T11:02:55.273Z,38.89
2023-03-19T11:06:28.027Z,38.76
2023-03-19T11:09:38.105Z,38.52
2023-03-19T11:12:40.908Z,38.66
2023-03-19T11:15:47.844Z,38.52
2023-03-19T11:18:50.726Z,38.78
2023-03-19T11:22:03.902Z,38.54
2023-03-19T11:25:52.042Z,38.04
2023-03-19T11:28:58.133Z,37.61
2023-03-19T11:32:21.019Z,39.40
2023-03-19T11:35:57.099Z,38.66
2023-03-19T11:39:52.688Z,37.87
2023-03-19T11:43:13.586Z,37.46
2023-03-19T11:46:34.925Z,37.25
2023-03-19T11:50:02.747Z,37.00
2023-03-19T11:53:23.862Z,36.86
2023-03-19T11:56:35.532Z,37.23
2023-03-19T12:00:00.397Z,37.31
2023-03-19T12:03:22.095Z,37.14
2023-03-19T12:06:33.082Z,37.35
2023-03-19T12:09:50.041Z,37.62
2023-03-19T12:12:55.794Z,37.22
2023-03-19T12:16:21.035Z,37.26
2023-03-19T12:19:43.048Z,37.49
2023-03-19T12:23:04.892Z,37.56
2023-03-19T12:26:14.746Z,37.65
2023-03-19T12:29:32.803Z,37.37
2023-03-19T12:32:58.107Z,37.68
2023-03-19T12:36:07.632Z,37.58
2023-03-19T12:39:20.247Z,37.40
2023-03-19T12:42:29.821Z,37.71
2023-03-19T12:45:39.959Z,37.82
2023-03-19T12:48:49.485Z,37.65
2023-03-19T12:51:57.680Z,37.70
2023-03-19T12:55:10.939Z,38.22
2023-03-19T12:58:50.986Z,38.25
2023-03-19T13:02:01.927Z,38.06
2023-03-19T13:05:25.244Z,38.15
2023-03-19T13:08:53.533Z,38.01
2023-03-19T13:12:10.698Z,38.51
2023-03-19T13:15:33.693Z,38.64
2023-03-19T13:19:05.613Z,38.46
2023-03-19T13:22:13.462Z,38.67
2023-03-19T13:25:22.442Z,38.35
2023-03-19T13:28:31.850Z,38.04
2023-03-19T13:31:36.873Z,38.20
2023-03-19T13:34:39.786Z,38.36
2023-03-19T13:37:43.650Z,38.46
2023-03-19T13:40:58.149Z,38.82
2023-03-19T13:44:22.759Z,38.58
2023-03-19T13:47:37.686Z,38.75
2023-03-19T13:51:25.240Z,39.03
2023-03-19T13:54:40.688Z,39.42
2023-03-19T13:58:17.964Z,39.17
2023-03-19T14:01:26.487Z,39.37
2023-03-19T14:04:34.412Z,39.65
2023-03-19T14:07:43.791Z,39.67
2023-03-19T14:10:50.857Z,39.53
2023-03-19T14:13:54.671Z,39.70
2023-03-19T14:17:00.200Z,39.79
2023-03-19T14:20:13.201Z,39.69
2023-03-19T14:23:25.134Z,39.81
2023-03-19T14:26:32.691Z,39.98
2023-03-19T14:29:36.035Z,39.95
2023-03-19T14:32:42.608Z,39.50
2023-03-19T14:35:48.280Z,39.30
2023-03-19T14:38:57.041Z,39.46
2023-03-19T14:42:22.119Z,39.25
2023-03-19T14:46:06.814Z,39.15
2023-03-19T14:49:32.723Z,38.69
2023-03-19T14:52:41.521Z,39.74
2023-03-19T14:55:49.801Z,39.91
2023-03-19T14:58:58.207Z,40.02
2023-03-19T15:02:01.682Z,40.07
2023-03-19T15:05:30.645Z,40.06
2023-03-19T15:08:36.951Z,40.14
2023-03-19T15:12:12.158Z,40.65
2023-03-19T15:15:39.966Z,40.80
2023-03-19T15:18:43.524Z,40.99
2023-03-19T15:21:50.427Z,41.14
2023-03-19T15:24:53.574Z,41.29
2023-03-19T15:28:07.898Z,41.06
2023-03-19T15:31:30.310Z,41.29
2023-03-19T15:34:36.784Z,41.95
2023-03-19T15:37:48.014Z,41.98
2023-03-19T15:40:51.488Z,41.88
2023-03-19T15:43:55.202Z,41.86
2023-03-19T15:47:01.444Z,41.96
2023-03-19T15:50:12.556Z,42.01
2023-03-19T15:53:23.026Z,42.09
2023-03-19T15:56:26.985Z,42.10
2023-03-19T15:59:31.743Z,42.07
2023-03-19T16:02:35.482Z,41.97
2023-03-19T16:05:38.777Z,42.12
2023-03-19T16:08:55.497Z,42.23
2023-03-19T16:11:58.666Z,42.36
2023-03-19T16:15:01.810Z,42.42
2023-03-19T16:18:16.920Z,42.49
2023-03-19T16:21:39.116Z,42.62
2023-03-19T16:24:46.489Z,42.85
2023-03-19T16:27:51.430Z,42.92
2023-03-19T16:30:54.372Z,43.40
2023-03-19T16:33:57.858Z,44.11
2023-03-19T16:37:01.236Z,44.62
2023-03-19T16:40:13.383Z,44.53
2023-03-19T16:43:34.270Z,44.95
2023-03-19T16:46:37.041Z,45.17
2023-03-19T16:49:40.430Z,45.20
2023-03-19T16:52:45.450Z,45.54
2023-03-19T16:55:48.932Z,45.61
2023-03-19T16:58:51.807Z,45.77
2023-03-19T17:01:54.731Z,46.34
2023-03-19T17:04:57.585Z,46.93
2023-03-19T17:08:01.302Z,47.54
2023-03-19T17:11:04.565Z,48.21
2023-03-19T17:14:16.017Z,48.26
2023-03-19T17:17:20.664Z,48.79
2023-03-19T17:20:32.117Z,49.24
2023-03-19T17:23:35.071Z,49.47
2023-03-19T17:26:38.106Z,49.61
2023-03-19T17:29:41.075Z,49.81
2023-03-19T17:32:47.378Z,50.21
2023-03-19T17:35:51.290Z,50.39
2023-03-19T17:38:55.446Z,50.43
2023-03-19T17:41:59.383Z,50.49
2023-03-19T17:45:02.173Z,50.67
2023-03-19T17:48:05.482Z,50.84
2023-03-19T17:51:09.579Z,51.14
2023-03-19T17:54:12.863Z,51.37
2023-03-19T17:57:16.257Z,51.53
2023-03-19T18:00:21.643Z,51.95
2023-03-19T18:03:27.515Z,51.83
2023-03-19T18:06:36.489Z,51.97
2023-03-19T18:09:39.454Z,51.73
2023-03-19T18:12:42.295Z,51.98
2023-03-19T18:15:45.813Z,51.91
2023-03-19T18:18:50.586Z,51.95
2023-03-19T18:21:53.311Z,52.68
2023-03-19T18:24:57.533Z,52.57
2023-03-19T18:28:00.438Z,52.55
2023-03-19T18:31:04.449Z,52.69
2023-03-19T18:34:11.253Z,52.85
2023-03-19T18:37:16.998Z,52.88
2023-03-19T18:40:23.396Z,52.97
2023-03-19T18:43:26.317Z,52.57
2023-03-19T18:46:31.579Z,53.13
2023-03-19T18:49:34.651Z,53.12
2023-03-19T18:52:37.861Z,53.54
2023-03-19T18:55:41.267Z,53.50
2023-03-19T18:58:44.285Z,53.44
2023-03-19T19:01:48.358Z,53.14
2023-03-19T19:04:51.399Z,53.12
2023-03-19T19:08:00.170Z,52.83
2023-03-19T19:11:04.371Z,53.17
2023-03-19T19:14:19.625Z,53.01
2023-03-19T19:17:29.318Z,53.49
2023-03-19T19:20:32.108Z,53.58
2023-03-19T19:23:34.834Z,53.64
2023-03-19T19:26:37.833Z,54.01
2023-03-19T19:29:40.803Z,54.17
2023-03-19T19:32:45.368Z,54.57
2023-03-19T19:35:48.630Z,54.45
2023-03-19T19:38:54.437Z,54.53
2023-03-19T19:41:57.215Z,54.37
2023-03-19T19:45:01.625Z,54.38
2023-03-19T19:48:07.751Z,55.14
2023-03-19T19:51:19.157Z,54.95
2023-03-19T19:54:24.907Z,54.73
2023-03-19T19:57:27.784Z,54.88
2023-03-19T20:00:32.117Z,54.92
2023-03-19T20:03:35.152Z,54.53
2023-03-19T20:06:38.007Z,54.86
2023-03-19T20:09:41.129Z,55.09
2023-03-19T20:12:46.128Z,55.11
2023-03-19T20:15:50.388Z,55.58
2023-03-19T20:18:54.869Z,55.54
2023-03-19T20:21:57.640Z,55.51
2023-03-19T20:25:00.542Z,55.60
2023-03-19T20:28:05.189Z,56.12
2023-03-19T20:31:32.295Z,56.43
2023-03-19T20:34:39.284Z,56.33
2023-03-19T20:37:43.098Z,57.05
2023-03-19T20:40:54.611Z,57.49
2023-03-19T20:44:03.045Z,57.93
2023-03-19T20:47:20.603Z,58.25
2023-03-19T20:50:26.373Z,58.22
2023-03-19T20:53:29.191Z,58.41
2023-03-19T20:56:31.979Z,58.73
2023-03-19T20:59:34.773Z,58.66
2023-03-19T21:02:38.074Z,58.75
2023-03-19T21:05:41.023Z,58.98
2023-03-19T21:08:47.700Z,59.19
2023-03-19T21:11:50.755Z,59.19
2023-03-19T21:14:53.540Z,59.38
2023-03-19T21:17:57.534Z,59.36
2023-03-19T21:21:00.434Z,59.41
2023-03-19T21:24:13.072Z,59.58
2023-03-19T21:27:27.553Z,59.56
2023-03-19T21:30:30.808Z,59.75
2023-03-19T21:33:35.552Z,60.13
2023-03-19T21:36:38.477Z,60.07
2023-03-19T21:39:41.389Z,60.38
2023-03-19T21:42:46.620Z,60.41
2023-03-19T21:45:52.158Z,60.44
2023-03-19T21:48:56.835Z,60.48
2023-03-19T21:51:59.653Z,60.31
2023-03-19T21:55:03.042Z,60.54
2023-03-19T21:58:13.511Z,60.77
2023-03-19T22:01:20.711Z,61.08
2023-03-19T22:04:23.574Z,60.96
2023-03-19T22:07:27.474Z,61.17
2023-03-19T22:10:30.469Z,61.33
2023-03-19T22:13:36.228Z,61.49
2023-03-19T22:16:39.070Z,61.55
2023-03-19T22:19:42.058Z,61.53
2023-03-19T22:22:44.946Z,61.42
2023-03-19T22:25:51.136Z,61.44
2023-03-19T22:28:55.710Z,61.76
2023-03-19T22:31:58.624Z,62.02
2023-03-19T22:35:04.419Z,62.03
2023-03-19T22:38:07.515Z,62.43
2023-03-19T22:41:22.814Z,62.31
2023-03-19T22:44:32.144Z,62.48
2023-03-19T22:47:38.671Z,63.04
2023-03-19T22:50:41.496Z,63.09
2023-03-19T22:53:45.516Z,63.26
2023-03-19T22:56:48.290Z,63.39
2023-03-19T22:59:51.402Z,63.88
2023-03-19T23:03:01.077Z,63.94
2023-03-19T23:06:23.461Z,64.09
2023-03-19T23:09:36.040Z,64.18
2023-03-19T23:12:38.828Z,64.34
2023-03-19T23:15:43.403Z,64.46
2023-03-19T23:18:47.033Z,64.62
2023-03-19T23:21:51.079Z,64.74
2023-03-19T23:24:53.804Z,64.86
2023-03-19T23:28:01.456Z,64.72
2023-03-19T23:31:05.670Z,65.13
2023-03-19T23:34:11.353Z,65.20
2023-03-19T23:37:14.456Z,65.25
2023-03-19T23:40:18.130Z,65.38
2023-03-19T23:43:25.199Z,65.31
2023-03-19T23:46:29.318Z,65.48
2023-03-19T23:49:32.998Z,65.53
2023-03-19T23:52:35.858Z,65.25
2023-03-19T23:55:38.767Z,65.01
2023-03-19T23:58:43.321Z,64.84
